createdAt,value
2018-08-27T00:00:09.075Z,16.21
2018-08-27T00:00:49.637Z,16.23
2018-08-27T00:01:30.194Z,16.17
2018-08-27T00:02:10.763Z,16.28
2018-08-27T00:02:51.325Z,16.21
2018-08-27T00:03:31.877Z,16.2
2018-08-27T00:04:12.437Z,16.21
2018-08-27T00:04:52.989Z,16.15
2018-08-27T00:05:33.549Z,16.17
2018-08-27T00:06:14.113Z,16.1
2018-08-27T00:06:54.677Z,16.08
2018-08-27T00:07:35.314Z,16.09
2018-08-27T00:08:15.868Z,16.09
2018-08-27T00:08:56.464Z,16.12
2018-08-27T00:09:37.026Z,16.1
2018-08-27T00:10:17.605Z,16.05
2018-08-27T00:10:58.156Z,16.1
2018-08-27T00:11:38.794Z,16.1
2018-08-27T00:12:19.375Z,16.1
2018-08-27T00:12:59.943Z,16.16
2018-08-27T00:13:40.513Z,16.23
2018-08-27T00:14:21.092Z,16.24
2018-08-27T00:15:01.635Z,16.21
2018-08-27T00:15:42.198Z,16.16
2018-08-27T00:16:22.795Z,16.17
2018-08-27T00:17:03.366Z,16.17
2018-08-27T00:17:43.921Z,16.24
2018-08-27T00:18:24.497Z,16.15
2018-08-27T00:19:05.069Z,16.16
2018-08-27T00:19:45.641Z,16.08
2018-08-27T00:20:26.222Z,16.09
2018-08-27T00:21:06.805Z,16.16
2018-08-27T00:21:47.359Z,16.17
2018-08-27T00:22:27.927Z,16.21
2018-08-27T00:23:08.509Z,16.17
2018-08-27T00:23:49.088Z,16.17
2018-08-27T00:24:29.660Z,16.17
2018-08-27T00:25:10.244Z,16.23
2018-08-27T00:25:50.800Z,16.23
2018-08-27T00:26:31.412Z,16.17
2018-08-27T00:27:11.974Z,16.28
2018-08-27T00:27:52.536Z,16.21
2018-08-27T00:28:33.100Z,16.28
2018-08-27T00:29:13.663Z,16.23
2018-08-27T00:29:54.235Z,16.2
2018-08-27T00:30:34.797Z,16.23
2018-08-27T00:31:15.354Z,16.21
2018-08-27T00:31:55.923Z,16.2
2018-08-27T00:32:36.483Z,16.2
2018-08-27T00:33:17.053Z,16.24
2018-08-27T00:33:57.619Z,16.24
2018-08-27T00:34:38.184Z,16.23
2018-08-27T00:35:18.739Z,16.26
2018-08-27T00:35:59.296Z,16.26
2018-08-27T00:36:39.876Z,16.23
2018-08-27T00:37:20.437Z,16.2
2018-08-27T00:38:01.046Z,16.21
2018-08-27T00:38:41.625Z,16.24
2018-08-27T00:39:22.238Z,16.21
2018-08-27T00:40:02.809Z,16.21
2018-08-27T00:40:43.373Z,16.24
2018-08-27T00:41:23.981Z,16.24
2018-08-27T00:42:04.511Z,16.2
2018-08-27T00:42:45.082Z,16.26
2018-08-27T00:43:25.644Z,16.23
2018-08-27T00:44:06.210Z,16.24
2018-08-27T00:44:46.766Z,16.24
2018-08-27T00:45:27.325Z,16.21
2018-08-27T00:46:07.895Z,16.28
2018-08-27T00:46:48.456Z,16.17
2018-08-27T00:47:29.017Z,16.17
2018-08-27T00:48:09.579Z,16.21
2018-08-27T00:48:50.219Z,16.23
2018-08-27T00:49:30.782Z,16.21
2018-08-27T00:50:11.350Z,16.17
2018-08-27T00:50:51.914Z,16.17
2018-08-27T00:51:32.475Z,16.15
2018-08-27T00:52:13.031Z,16.16
2018-08-27T00:52:53.618Z,16.08
2018-08-27T00:53:34.177Z,16.09
2018-08-27T00:54:14.743Z,16.1
2018-08-27T00:54:55.302Z,16.05
2018-08-27T00:55:35.872Z,16.12
2018-08-27T00:56:16.434Z,16.09
2018-08-27T00:56:57.011Z,16.15
2018-08-27T00:57:37.580Z,16.15
2018-08-27T00:58:18.136Z,16.08
2018-08-27T00:58:58.692Z,16.1
2018-08-27T00:59:39.264Z,16.13
2018-08-27T01:00:19.836Z,16.17
2018-08-27T01:01:00.399Z,16.1
2018-08-27T01:01:40.965Z,16.08
2018-08-27T01:02:21.529Z,16.13
2018-08-27T01:03:02.089Z,16.12
2018-08-27T01:03:42.640Z,16.09
2018-08-27T01:04:23.211Z,16.09
2018-08-27T01:05:03.782Z,16.01
2018-08-27T01:05:44.349Z,16.05
2018-08-27T01:06:24.925Z,15.98
2018-08-27T01:07:05.463Z,15.98
2018-08-27T01:07:46.028Z,16.1
2018-08-27T01:08:26.583Z,16.02
2018-08-27T01:09:07.146Z,16
2018-08-27T01:09:47.697Z,16.04
2018-08-27T01:10:28.281Z,16.08
2018-08-27T01:11:08.845Z,16.02
2018-08-27T01:11:49.461Z,16.04
2018-08-27T01:12:30.040Z,15.97
2018-08-27T01:13:10.596Z,16.13
2018-08-27T01:13:51.171Z,16.08
2018-08-27T01:14:31.738Z,15.95
2018-08-27T01:15:12.305Z,15.98
2018-08-27T01:15:52.870Z,16.01
2018-08-27T01:16:33.438Z,16
2018-08-27T01:17:13.997Z,16.01
2018-08-27T01:17:54.558Z,15.98
2018-08-27T01:18:35.117Z,16.04
2018-08-27T01:19:15.682Z,15.97
2018-08-27T01:19:56.251Z,16.01
2018-08-27T01:20:36.819Z,15.98
2018-08-27T01:21:17.381Z,15.97
2018-08-27T01:21:57.952Z,16.01
2018-08-27T01:22:38.606Z,15.95
2018-08-27T01:23:19.081Z,15.94
2018-08-27T01:23:59.646Z,15.95
2018-08-27T01:24:40.204Z,16.01
2018-08-27T01:25:20.769Z,15.95
2018-08-27T01:26:01.385Z,15.91
2018-08-27T01:26:41.951Z,15.97
2018-08-27T01:27:22.513Z,15.95
2018-08-27T01:28:03.093Z,15.95
2018-08-27T01:28:43.654Z,15.83
2018-08-27T01:29:24.221Z,15.97
2018-08-27T01:30:04.788Z,15.91
2018-08-27T01:30:45.345Z,15.83
2018-08-27T01:31:25.900Z,15.73
2018-08-27T01:32:06.488Z,15.82
2018-08-27T01:32:47.052Z,15.75
2018-08-27T01:33:27.625Z,15.86
2018-08-27T01:34:08.219Z,15.86
2018-08-27T01:34:48.778Z,15.84
2018-08-27T01:35:29.338Z,15.77
2018-08-27T01:36:09.906Z,15.88
2018-08-27T01:36:50.475Z,15.86
2018-08-27T01:37:31.042Z,15.86
2018-08-27T01:38:11.596Z,15.82
2018-08-27T01:38:52.163Z,15.84
2018-08-27T01:39:32.733Z,15.8
2018-08-27T01:40:13.342Z,15.79
2018-08-27T01:40:53.900Z,15.79
2018-08-27T01:41:34.470Z,15.79
2018-08-27T01:42:15.033Z,15.8
2018-08-27T01:42:55.593Z,15.77
2018-08-27T01:43:36.157Z,15.8
2018-08-27T01:44:16.724Z,15.73
2018-08-27T01:44:57.287Z,15.76
2018-08-27T01:45:37.850Z,15.8
2018-08-27T01:46:18.411Z,15.76
2018-08-27T01:46:58.963Z,15.67
2018-08-27T01:47:39.528Z,15.68
2018-08-27T01:48:20.093Z,15.7
2018-08-27T01:49:00.649Z,15.72
2018-08-27T01:49:41.193Z,15.73
2018-08-27T01:50:21.762Z,15.67
2018-08-27T01:51:02.320Z,15.64
2018-08-27T01:51:42.889Z,15.68
2018-08-27T01:52:23.442Z,15.65
2018-08-27T01:53:04.025Z,15.62
2018-08-27T01:53:44.600Z,15.58
2018-08-27T01:54:25.162Z,15.59
2018-08-27T01:55:05.723Z,15.64
2018-08-27T01:55:46.274Z,15.55
2018-08-27T01:56:26.844Z,15.61
2018-08-27T01:57:07.421Z,15.58
2018-08-27T01:57:47.971Z,15.57
2018-08-27T01:58:28.529Z,15.59
2018-08-27T01:59:09.095Z,15.62
2018-08-27T01:59:49.672Z,15.59
2018-08-27T02:00:30.236Z,15.58
2018-08-27T02:01:10.805Z,15.59
2018-08-27T02:01:51.378Z,15.59
2018-08-27T02:02:31.939Z,15.64
2018-08-27T02:03:12.506Z,15.59
2018-08-27T02:03:53.065Z,15.68
2018-08-27T02:04:33.631Z,15.55
2018-08-27T02:05:14.191Z,15.55
2018-08-27T02:05:54.769Z,15.59
2018-08-27T02:06:35.323Z,15.64
2018-08-27T02:07:15.884Z,15.55
2018-08-27T02:07:56.438Z,15.61
2018-08-27T02:08:37.008Z,15.59
2018-08-27T02:09:17.569Z,15.55
2018-08-27T02:09:58.136Z,15.55
2018-08-27T02:10:38.694Z,15.54
2018-08-27T02:11:19.258Z,15.55
2018-08-27T02:11:59.824Z,15.57
2018-08-27T02:12:40.385Z,15.55
2018-08-27T02:13:20.952Z,15.49
2018-08-27T02:14:01.511Z,15.51
2018-08-27T02:14:42.090Z,15.46
2018-08-27T02:15:22.697Z,15.44
2018-08-27T02:16:03.212Z,15.54
2018-08-27T02:16:43.777Z,15.51
2018-08-27T02:17:24.344Z,15.51
2018-08-27T02:18:04.940Z,15.49
2018-08-27T02:18:45.495Z,15.52
2018-08-27T02:19:26.069Z,15.44
2018-08-27T02:20:06.615Z,15.39
2018-08-27T02:20:47.179Z,15.43
2018-08-27T02:21:27.737Z,15.36
2018-08-27T02:22:08.301Z,15.35
2018-08-27T02:22:48.873Z,15.33
2018-08-27T02:23:29.430Z,15.49
2018-08-27T02:24:09.989Z,15.39
2018-08-27T02:24:50.560Z,15.33
2018-08-27T02:25:31.114Z,15.42
2018-08-27T02:26:11.683Z,15.28
2018-08-27T02:26:52.256Z,15.27
2018-08-27T02:27:32.818Z,15.25
2018-08-27T02:28:13.382Z,15.25
2018-08-27T02:28:53.954Z,15.27
2018-08-27T02:29:34.515Z,15.35
2018-08-27T02:30:15.076Z,15.24
2018-08-27T02:30:55.642Z,15.28
2018-08-27T02:31:36.202Z,15.28
2018-08-27T02:32:16.789Z,15.28
2018-08-27T02:32:57.342Z,15.22
2018-08-27T02:33:37.959Z,15.25
2018-08-27T02:34:18.539Z,15.22
2018-08-27T02:34:59.114Z,15.22
2018-08-27T02:35:39.657Z,15.19
2018-08-27T02:36:20.219Z,15.25
2018-08-27T02:37:00.786Z,15.18
2018-08-27T02:37:41.336Z,15.25
2018-08-27T02:38:21.899Z,15.15
2018-08-27T02:39:02.487Z,15.18
2018-08-27T02:39:43.054Z,15.1
2018-08-27T02:40:23.595Z,15.21
2018-08-27T02:41:04.178Z,15.1
2018-08-27T02:41:44.751Z,15.18
2018-08-27T02:42:25.328Z,15.14
2018-08-27T02:43:05.893Z,15.15
2018-08-27T02:43:46.460Z,15.17
2018-08-27T02:44:27.005Z,15.15
2018-08-27T02:45:07.566Z,15.17
2018-08-27T02:45:48.122Z,15.17
2018-08-27T02:46:28.682Z,15.17
2018-08-27T02:47:09.238Z,15.19
2018-08-27T02:47:49.847Z,15.09
2018-08-27T02:48:30.414Z,15.09
2018-08-27T02:49:10.985Z,15.1
2018-08-27T02:49:51.603Z,15.11
2018-08-27T02:50:32.147Z,15.09
2018-08-27T02:51:12.718Z,15.1
2018-08-27T02:51:53.332Z,15.17
2018-08-27T02:52:33.917Z,15.15
2018-08-27T02:53:14.482Z,15.06
2018-08-27T02:53:55.038Z,15.15
2018-08-27T02:54:35.638Z,15.11
2018-08-27T02:55:16.216Z,15.09
2018-08-27T02:55:56.774Z,15.1
2018-08-27T02:56:37.383Z,15.09
2018-08-27T02:57:17.949Z,15.09
2018-08-27T02:57:58.515Z,15.15
2018-08-27T02:58:39.071Z,15.14
2018-08-27T02:59:19.635Z,15.17
2018-08-27T03:00:00.202Z,15.14
2018-08-27T03:00:40.760Z,15.15
2018-08-27T03:01:21.332Z,15.11
2018-08-27T03:02:01.923Z,15.1
2018-08-27T03:02:42.471Z,15.1
2018-08-27T03:03:23.029Z,15.1
2018-08-27T03:04:03.592Z,15.11
2018-08-27T03:04:44.158Z,15.06
2018-08-27T03:05:24.712Z,15.17
2018-08-27T03:06:05.271Z,15.11
2018-08-27T03:06:45.866Z,15.21
2018-08-27T03:07:26.421Z,15.09
2018-08-27T03:08:07.003Z,15.11
2018-08-27T03:08:47.562Z,15.15
2018-08-27T03:09:28.148Z,15.09
2018-08-27T03:10:08.723Z,15.14
2018-08-27T03:10:49.281Z,15.1
2018-08-27T03:11:29.842Z,15.11
2018-08-27T03:12:10.395Z,15.09
2018-08-27T03:12:50.979Z,15.11
2018-08-27T03:13:31.531Z,15.15
2018-08-27T03:14:12.103Z,15.17
2018-08-27T03:14:52.689Z,15.09
2018-08-27T03:15:33.239Z,15.14
2018-08-27T03:16:13.805Z,15.15
2018-08-27T03:16:54.371Z,15.09
2018-08-27T03:17:34.937Z,15.15
2018-08-27T03:18:15.502Z,15.11
2018-08-27T03:18:56.083Z,15.1
2018-08-27T03:19:36.628Z,15.04
2018-08-27T03:20:17.188Z,15
2018-08-27T03:20:57.755Z,14.96
2018-08-27T03:21:38.320Z,15.04
2018-08-27T03:22:18.888Z,15
2018-08-27T03:22:59.427Z,14.97
2018-08-27T03:23:40.035Z,15.06
2018-08-27T03:24:20.628Z,15.03
2018-08-27T03:25:01.307Z,15
2018-08-27T03:25:41.817Z,15.06
2018-08-27T03:26:22.376Z,15.03
2018-08-27T03:27:02.926Z,15.06
2018-08-27T03:27:43.493Z,15.02
2018-08-27T03:28:24.136Z,15.06
2018-08-27T03:29:04.713Z,15.14
2018-08-27T03:29:45.271Z,15.1
2018-08-27T03:30:25.864Z,15.15
2018-08-27T03:31:06.422Z,15.07
2018-08-27T03:31:46.985Z,15.1
2018-08-27T03:32:27.531Z,15.11
2018-08-27T03:33:08.143Z,15.04
2018-08-27T03:33:48.750Z,15.07
2018-08-27T03:34:29.315Z,15.02
2018-08-27T03:35:09.884Z,14.99
2018-08-27T03:35:50.444Z,14.97
2018-08-27T03:36:31.003Z,14.96
2018-08-27T03:37:11.564Z,15
2018-08-27T03:37:52.135Z,14.96
2018-08-27T03:38:32.685Z,14.91
2018-08-27T03:39:13.250Z,14.96
2018-08-27T03:39:53.819Z,14.94
2018-08-27T03:40:34.428Z,14.97
2018-08-27T03:41:14.978Z,14.99
2018-08-27T03:41:55.546Z,14.88
2018-08-27T03:42:36.106Z,14.89
2018-08-27T03:43:16.673Z,14.88
2018-08-27T03:43:57.223Z,14.97
2018-08-27T03:44:37.774Z,14.86
2018-08-27T03:45:18.344Z,14.86
2018-08-27T03:45:58.910Z,14.86
2018-08-27T03:46:39.471Z,14.92
2018-08-27T03:47:20.034Z,14.81
2018-08-27T03:48:00.601Z,14.86
2018-08-27T03:48:41.251Z,14.81
2018-08-27T03:49:21.701Z,14.85
2018-08-27T03:50:02.263Z,14.89
2018-08-27T03:50:42.822Z,14.84
2018-08-27T03:51:23.397Z,14.85
2018-08-27T03:52:03.972Z,14.82
2018-08-27T03:52:44.532Z,14.85
2018-08-27T03:53:25.090Z,14.78
2018-08-27T03:54:05.654Z,14.81
2018-08-27T03:54:46.227Z,14.79
2018-08-27T03:55:26.801Z,14.81
2018-08-27T03:56:07.394Z,14.84
2018-08-27T03:56:47.953Z,14.77
2018-08-27T03:57:28.518Z,14.72
2018-08-27T03:58:09.076Z,14.79
2018-08-27T03:58:49.671Z,14.7
2018-08-27T03:59:30.220Z,14.68
2018-08-27T04:00:10.784Z,14.79
2018-08-27T04:00:51.355Z,14.85
2018-08-27T04:01:31.915Z,14.72
2018-08-27T04:02:12.480Z,14.78
2018-08-27T04:02:53.024Z,14.81
2018-08-27T04:03:33.584Z,14.73
2018-08-27T04:04:14.147Z,14.81
2018-08-27T04:04:54.721Z,14.82
2018-08-27T04:05:35.286Z,14.84
2018-08-27T04:06:15.845Z,14.79
2018-08-27T04:06:56.415Z,14.82
2018-08-27T04:07:36.975Z,14.79
2018-08-27T04:08:17.541Z,14.84
2018-08-27T04:08:58.093Z,14.73
2018-08-27T04:09:38.660Z,14.81
2018-08-27T04:10:19.220Z,14.81
2018-08-27T04:10:59.785Z,14.72
2018-08-27T04:11:40.340Z,14.7
2018-08-27T04:12:20.913Z,14.79
2018-08-27T04:13:01.480Z,14.81
2018-08-27T04:13:42.033Z,14.73
2018-08-27T04:14:22.594Z,14.78
2018-08-27T04:15:03.148Z,14.72
2018-08-27T04:15:43.710Z,14.7
2018-08-27T04:16:24.269Z,14.66
2018-08-27T04:17:04.826Z,14.66
2018-08-27T04:17:45.390Z,14.65
2018-08-27T04:18:25.945Z,14.72
2018-08-27T04:19:06.502Z,14.78
2018-08-27T04:19:47.098Z,14.81
2018-08-27T04:20:27.659Z,14.73
2018-08-27T04:21:08.225Z,14.73
2018-08-27T04:21:48.784Z,14.69
2018-08-27T04:22:29.383Z,14.72
2018-08-27T04:23:09.990Z,14.73
2018-08-27T04:23:50.546Z,14.69
2018-08-27T04:24:31.113Z,14.68
2018-08-27T04:25:11.704Z,14.66
2018-08-27T04:25:52.256Z,14.66
2018-08-27T04:26:32.803Z,14.69
2018-08-27T04:27:13.379Z,14.69
2018-08-27T04:27:53.986Z,14.66
2018-08-27T04:28:34.589Z,14.66
2018-08-27T04:29:15.103Z,14.65
2018-08-27T04:29:55.671Z,14.7
2018-08-27T04:30:36.244Z,14.69
2018-08-27T04:31:16.801Z,14.7
2018-08-27T04:31:57.363Z,14.69
2018-08-27T04:32:37.925Z,14.69
2018-08-27T04:33:18.481Z,14.66
2018-08-27T04:33:59.048Z,14.68
2018-08-27T04:34:39.624Z,14.72
2018-08-27T04:35:20.180Z,14.81
2018-08-27T04:36:00.755Z,14.78
2018-08-27T04:36:41.315Z,14.82
2018-08-27T04:37:21.886Z,14.82
2018-08-27T04:38:02.468Z,14.79
2018-08-27T04:38:43.053Z,14.84
2018-08-27T04:39:23.623Z,14.78
2018-08-27T04:40:04.189Z,14.84
2018-08-27T04:40:44.755Z,14.81
2018-08-27T04:41:25.349Z,14.89
2018-08-27T04:42:05.884Z,14.89
2018-08-27T04:42:46.465Z,14.88
2018-08-27T04:43:27.026Z,14.88
2018-08-27T04:44:07.581Z,14.92
2018-08-27T04:44:48.140Z,14.92
2018-08-27T04:45:28.702Z,15.03
2018-08-27T04:46:09.266Z,15.04
2018-08-27T04:46:49.856Z,15.09
2018-08-27T04:47:30.398Z,15.31
2018-08-27T04:48:10.964Z,15.29
2018-08-27T04:48:51.522Z,15.39
2018-08-27T04:49:32.149Z,15.51
2018-08-27T04:50:12.707Z,15.52
2018-08-27T04:50:53.270Z,15.65
2018-08-27T04:51:33.831Z,15.67
2018-08-27T04:52:14.403Z,15.75
2018-08-27T04:52:54.961Z,15.8
2018-08-27T04:53:35.510Z,15.84
2018-08-27T04:54:16.099Z,15.91
2018-08-27T04:54:56.648Z,15.9
2018-08-27T04:55:37.215Z,15.92
2018-08-27T04:56:17.761Z,15.83
2018-08-27T04:56:58.331Z,15.91
2018-08-27T04:57:38.907Z,15.95
2018-08-27T04:58:19.478Z,15.91
2018-08-27T04:59:00.089Z,16
2018-08-27T04:59:40.635Z,15.97
2018-08-27T05:00:21.182Z,16.04
2018-08-27T05:01:01.742Z,16.02
2018-08-27T05:01:42.312Z,16.09
2018-08-27T05:02:22.872Z,16.02
2018-08-27T05:03:03.424Z,16.08
2018-08-27T05:03:43.998Z,16.05
2018-08-27T05:04:24.607Z,16.08
2018-08-27T05:05:05.164Z,16.09
2018-08-27T05:05:45.727Z,16.12
2018-08-27T05:06:26.297Z,16.23
2018-08-27T05:07:06.864Z,16.28
2018-08-27T05:07:47.433Z,16.26
2018-08-27T05:08:27.991Z,16.32
2018-08-27T05:09:08.550Z,16.29
2018-08-27T05:09:49.113Z,16.35
2018-08-27T05:10:29.685Z,16.28
2018-08-27T05:11:10.251Z,16.29
2018-08-27T05:11:50.797Z,16.21
2018-08-27T05:12:31.354Z,16.17
2018-08-27T05:13:12.025Z,16.21
2018-08-27T05:13:52.557Z,16.23
2018-08-27T05:14:33.138Z,16.26
2018-08-27T05:15:13.693Z,16.29
2018-08-27T05:15:54.292Z,16.23
2018-08-27T05:16:34.871Z,16.23
2018-08-27T05:17:15.435Z,16.28
2018-08-27T05:17:55.988Z,16.28
2018-08-27T05:18:36.642Z,16.39
2018-08-27T05:19:17.294Z,16.39
2018-08-27T05:19:57.775Z,16.36
2018-08-27T05:20:38.349Z,16.5
2018-08-27T05:21:18.910Z,16.5
2018-08-27T05:21:59.474Z,16.61
2018-08-27T05:22:40.037Z,16.53
2018-08-27T05:23:20.601Z,16.57
2018-08-27T05:24:01.173Z,16.6
2018-08-27T05:24:41.733Z,16.65
2018-08-27T05:25:22.294Z,16.6
2018-08-27T05:26:02.877Z,16.54
2018-08-27T05:26:43.456Z,16.58
2018-08-27T05:27:24.045Z,16.58
2018-08-27T05:28:04.602Z,16.64
2018-08-27T05:28:45.178Z,16.61
2018-08-27T05:29:25.736Z,16.64
2018-08-27T05:30:06.302Z,16.57
2018-08-27T05:30:46.883Z,16.56
2018-08-27T05:31:27.553Z,16.65
2018-08-27T05:32:07.988Z,16.64
2018-08-27T05:32:48.571Z,16.57
2018-08-27T05:33:29.136Z,16.6
2018-08-27T05:34:09.699Z,16.61
2018-08-27T05:34:50.251Z,16.6
2018-08-27T05:35:31.032Z,16.66
2018-08-27T05:36:11.594Z,16.6
2018-08-27T05:36:52.138Z,16.68
2018-08-27T05:37:32.753Z,16.71
2018-08-27T05:38:13.408Z,16.65
2018-08-27T05:38:53.947Z,16.68
2018-08-27T05:39:34.495Z,16.65
2018-08-27T05:40:15.084Z,16.61
2018-08-27T05:40:55.647Z,16.61
2018-08-27T05:41:36.220Z,16.64
2018-08-27T05:42:16.783Z,16.61
2018-08-27T05:42:57.762Z,16.65
2018-08-27T05:43:38.335Z,16.56
2018-08-27T05:44:20.035Z,16.54
2018-08-27T05:45:00.710Z,16.56
2018-08-27T05:45:41.291Z,16.6
2018-08-27T05:46:23.455Z,16.54
2018-08-27T05:47:04.226Z,16.51
2018-08-27T05:47:45.027Z,16.51
2018-08-27T05:48:25.469Z,16.47
2018-08-27T05:49:06.059Z,16.53
2018-08-27T05:49:48.107Z,16.58
2018-08-27T05:50:28.662Z,16.6
2018-08-27T05:51:09.341Z,16.54
2018-08-27T05:51:49.901Z,16.58
2018-08-27T05:52:30.520Z,16.53
2018-08-27T05:53:11.532Z,16.58
2018-08-27T05:53:53.328Z,16.65
2018-08-27T05:54:33.909Z,16.57
2018-08-27T05:55:14.497Z,16.61
2018-08-27T05:55:55.160Z,16.64
2018-08-27T05:56:35.746Z,16.71
2018-08-27T05:57:16.313Z,16.69
2018-08-27T05:57:56.871Z,16.68
2018-08-27T05:58:37.444Z,16.74
2018-08-27T05:59:18.123Z,16.71
2018-08-27T05:59:58.689Z,16.68
2018-08-27T06:00:39.728Z,16.68
2018-08-27T06:01:20.186Z,16.83
2018-08-27T06:02:00.816Z,16.81
2018-08-27T06:02:41.297Z,16.83
2018-08-27T06:03:21.883Z,16.9
2018-08-27T06:04:02.436Z,16.96
2018-08-27T06:04:43.135Z,17.01
2018-08-27T06:05:23.639Z,17.04
2018-08-27T06:06:04.210Z,17.05
2018-08-27T06:06:44.778Z,17.04
2018-08-27T06:07:25.329Z,17.05
2018-08-27T06:08:05.897Z,17.15
2018-08-27T06:08:46.459Z,17.11
2018-08-27T06:09:27.092Z,17.09
2018-08-27T06:10:07.658Z,17.27
2018-08-27T06:10:48.233Z,17.27
2018-08-27T06:11:28.796Z,17.16
2018-08-27T06:12:09.394Z,17.31
2018-08-27T06:12:49.969Z,17.36
2018-08-27T06:13:30.583Z,17.38
2018-08-27T06:14:11.128Z,17.33
2018-08-27T06:14:51.693Z,17.38
2018-08-27T06:15:32.259Z,17.44
2018-08-27T06:16:12.910Z,17.41
2018-08-27T06:16:53.445Z,17.39
2018-08-27T06:17:34.172Z,17.39
2018-08-27T06:18:14.779Z,17.41
2018-08-27T06:18:55.346Z,17.34
2018-08-27T06:19:35.937Z,17.33
2018-08-27T06:20:16.500Z,17.36
2018-08-27T06:20:57.061Z,17.39
2018-08-27T06:21:37.721Z,17.3
2018-08-27T06:22:18.484Z,17.36
2018-08-27T06:22:58.977Z,17.3
2018-08-27T06:23:39.610Z,17.39
2018-08-27T06:24:20.405Z,17.38
2018-08-27T06:25:01.161Z,17.24
2018-08-27T06:25:41.650Z,17.24
2018-08-27T06:26:22.214Z,17.24
2018-08-27T06:27:02.961Z,17.24
2018-08-27T06:27:43.535Z,17.34
2018-08-27T06:28:24.101Z,17.33
2018-08-27T06:29:04.645Z,17.41
2018-08-27T06:29:45.211Z,17.49
2018-08-27T06:30:25.828Z,17.59
2018-08-27T06:31:06.375Z,17.78
2018-08-27T06:31:46.936Z,17.82
2018-08-27T06:32:27.564Z,17.95
2018-08-27T06:33:08.084Z,18.04
2018-08-27T06:33:48.663Z,18.18
2018-08-27T06:34:29.234Z,18.16
2018-08-27T06:35:09.976Z,18.28
2018-08-27T06:35:50.565Z,18.26
2018-08-27T06:36:31.169Z,18.4
2018-08-27T06:37:11.745Z,18.28
2018-08-27T06:37:52.427Z,18.31
2018-08-27T06:38:33.167Z,18.29
2018-08-27T06:39:13.739Z,18.28
2018-08-27T06:39:54.317Z,18.28
2018-08-27T06:40:34.878Z,18.35
2018-08-27T06:41:15.468Z,18.31
2018-08-27T06:41:56.048Z,18.22
2018-08-27T06:42:36.752Z,18.26
2018-08-27T06:43:17.363Z,18.13
2018-08-27T06:43:58.374Z,18.19
2018-08-27T06:44:38.989Z,18.18
2018-08-27T06:45:19.510Z,18.13
2018-08-27T06:46:00.801Z,18.05
2018-08-27T06:46:41.481Z,18
2018-08-27T06:47:22.049Z,17.98
2018-08-27T06:48:02.667Z,17.98
2018-08-27T06:48:43.229Z,17.97
2018-08-27T06:49:23.854Z,17.94
2018-08-27T06:50:04.374Z,17.95
2018-08-27T06:50:45.070Z,18
2018-08-27T06:51:25.644Z,17.95
2018-08-27T06:52:06.235Z,17.95
2018-08-27T06:52:46.928Z,17.98
2018-08-27T06:53:27.501Z,17.97
2018-08-27T06:54:08.093Z,17.97
2018-08-27T06:54:48.671Z,17.95
2018-08-27T06:55:29.383Z,17.98
2018-08-27T06:56:10.306Z,18.01
2018-08-27T06:56:51.814Z,18.01
2018-08-27T06:57:33.436Z,18.03
2018-08-27T06:58:14.049Z,18.13
2018-08-27T06:58:54.670Z,18.08
2018-08-27T06:59:35.388Z,18.1
2018-08-27T07:00:15.969Z,18.15
2018-08-27T07:00:56.529Z,18.15
2018-08-27T07:01:37.210Z,18.13
2018-08-27T07:02:17.845Z,18.19
2018-08-27T07:02:58.383Z,18.18
2018-08-27T07:03:38.964Z,18.22
2018-08-27T07:04:19.601Z,18.18
2018-08-27T07:05:00.191Z,18.29
2018-08-27T07:05:40.716Z,18.28
2018-08-27T07:06:21.352Z,18.29
2018-08-27T07:07:01.968Z,18.28
2018-08-27T07:07:42.601Z,18.26
2018-08-27T07:08:23.215Z,18.28
2018-08-27T07:09:03.807Z,18.34
2018-08-27T07:09:44.367Z,18.34
2018-08-27T07:10:24.952Z,18.44
2018-08-27T07:11:05.509Z,18.45
2018-08-27T07:11:46.145Z,18.45
2018-08-27T07:12:26.649Z,18.44
2018-08-27T07:13:07.238Z,18.41
2018-08-27T07:13:47.811Z,18.56
2018-08-27T07:14:28.422Z,18.58
2018-08-27T07:15:09.008Z,18.63
2018-08-27T07:15:49.642Z,18.7
2018-08-27T07:16:30.330Z,18.73
2018-08-27T07:17:10.921Z,18.75
2018-08-27T07:17:51.481Z,18.78
2018-08-27T07:18:32.076Z,18.92
2018-08-27T07:19:12.656Z,18.83
2018-08-27T07:19:53.278Z,18.88
2018-08-27T07:20:33.842Z,18.92
2018-08-27T07:21:14.422Z,18.89
2018-08-27T07:21:54.988Z,18.99
2018-08-27T07:22:35.548Z,18.92
2018-08-27T07:23:16.109Z,19.04
2018-08-27T07:23:56.677Z,19.15
2018-08-27T07:24:37.219Z,19.16
2018-08-27T07:25:17.776Z,19.11
2018-08-27T07:25:58.357Z,19.15
2018-08-27T07:26:38.930Z,19.16
2018-08-27T07:27:19.565Z,19.08
2018-08-27T07:28:00.068Z,19.08
2018-08-27T07:28:40.713Z,18.99
2018-08-27T07:29:21.292Z,19.04
2018-08-27T07:30:01.844Z,18.95
2018-08-27T07:30:42.438Z,18.93
2018-08-27T07:31:23.021Z,18.96
2018-08-27T07:32:03.623Z,19.04
2018-08-27T07:32:44.160Z,18.93
2018-08-27T07:33:24.757Z,18.89
2018-08-27T07:34:05.318Z,18.92
2018-08-27T07:34:45.881Z,18.92
2018-08-27T07:35:26.540Z,18.92
2018-08-27T07:36:07.167Z,18.95
2018-08-27T07:36:47.624Z,18.99
2018-08-27T07:37:28.199Z,18.88
2018-08-27T07:38:08.756Z,18.95
2018-08-27T07:38:49.341Z,18.86
2018-08-27T07:39:29.905Z,18.83
2018-08-27T07:40:10.476Z,18.9
2018-08-27T07:40:51.032Z,18.8
2018-08-27T07:41:31.586Z,18.93
2018-08-27T07:42:12.179Z,18.77
2018-08-27T07:42:52.743Z,18.93
2018-08-27T07:43:33.481Z,18.89
2018-08-27T07:44:13.879Z,18.88
2018-08-27T07:44:54.473Z,18.96
2018-08-27T07:45:35.037Z,18.92
2018-08-27T07:46:15.746Z,19.16
2018-08-27T07:46:56.391Z,19.33
2018-08-27T07:47:36.955Z,19.34
2018-08-27T07:48:17.531Z,19.51
2018-08-27T07:48:58.103Z,19.55
2018-08-27T07:49:38.698Z,19.73
2018-08-27T07:50:19.259Z,19.67
2018-08-27T07:50:59.817Z,19.84
2018-08-27T07:51:40.439Z,19.94
2018-08-27T07:52:21.298Z,19.84
2018-08-27T07:53:02.957Z,19.89
2018-08-27T07:53:43.280Z,19.94
2018-08-27T07:54:23.845Z,19.91
2018-08-27T07:55:04.408Z,19.86
2018-08-27T07:55:44.969Z,19.77
2018-08-27T07:56:25.574Z,19.84
2018-08-27T07:57:06.135Z,19.7
2018-08-27T07:57:46.734Z,19.79
2018-08-27T07:58:27.314Z,19.7
2018-08-27T07:59:07.855Z,19.7
2018-08-27T07:59:48.441Z,19.73
2018-08-27T08:00:29.015Z,19.64
2018-08-27T08:01:09.585Z,19.58
2018-08-27T08:01:50.146Z,19.66
2018-08-27T08:02:31.591Z,19.56
2018-08-27T08:03:13.447Z,19.54
2018-08-27T08:03:54.038Z,19.62
2018-08-27T08:04:34.696Z,19.51
2018-08-27T08:05:15.239Z,19.58
2018-08-27T08:05:55.905Z,19.58
2018-08-27T08:06:36.688Z,19.66
2018-08-27T08:07:17.274Z,19.62
2018-08-27T08:07:57.881Z,19.74
2018-08-27T08:08:38.497Z,19.79
2018-08-27T08:09:20.115Z,19.84
2018-08-27T08:10:00.829Z,19.88
2018-08-27T08:10:41.657Z,19.88
2018-08-27T08:11:22.244Z,19.95
2018-08-27T08:12:02.883Z,19.91
2018-08-27T08:12:43.458Z,20.07
2018-08-27T08:13:24.178Z,20.19
2018-08-27T08:14:04.969Z,20.29
2018-08-27T08:14:45.739Z,20.31
2018-08-27T08:15:26.325Z,20.29
2018-08-27T08:16:07.081Z,20.34
2018-08-27T08:16:47.601Z,20.5
2018-08-27T08:17:28.408Z,20.58
2018-08-27T08:18:08.980Z,20.62
2018-08-27T08:18:49.684Z,20.75
2018-08-27T08:19:30.345Z,20.7
2018-08-27T08:20:11.169Z,20.84
2018-08-27T08:20:51.775Z,20.74
2018-08-27T08:21:32.420Z,20.77
2018-08-27T08:22:13.082Z,20.85
2018-08-27T08:22:53.726Z,20.84
2018-08-27T08:23:34.208Z,20.92
2018-08-27T08:24:14.780Z,20.93
2018-08-27T08:24:55.336Z,21.09
2018-08-27T08:25:35.922Z,21.07
2018-08-27T08:26:16.508Z,21.06
2018-08-27T08:26:57.083Z,21.06
2018-08-27T08:27:37.631Z,21.11
2018-08-27T08:28:18.243Z,21.02
2018-08-27T08:28:58.863Z,21.07
2018-08-27T08:29:39.433Z,21.12
2018-08-27T08:30:20.009Z,21.15
2018-08-27T08:31:00.562Z,21.02
2018-08-27T08:31:41.128Z,21.03
2018-08-27T08:32:21.696Z,21.09
2018-08-27T08:33:02.297Z,21.07
2018-08-27T08:33:42.827Z,21.06
2018-08-27T08:34:23.425Z,21.07
2018-08-27T08:35:04.028Z,20.99
2018-08-27T08:35:44.667Z,21.02
2018-08-27T08:36:25.275Z,21.11
2018-08-27T08:37:05.841Z,21.09
2018-08-27T08:37:46.391Z,21.02
2018-08-27T08:38:26.959Z,21.11
2018-08-27T08:39:07.534Z,21.12
2018-08-27T08:39:48.184Z,21.02
2018-08-27T08:40:28.810Z,21.12
2018-08-27T08:41:09.395Z,21
2018-08-27T08:41:49.957Z,21.09
2018-08-27T08:42:30.596Z,21.03
2018-08-27T08:43:11.204Z,21.05
2018-08-27T08:43:51.790Z,21.12
2018-08-27T08:44:32.453Z,21.02